createdAt,value
2022-08-09T00:00:08.171Z,5.90
2022-08-09T00:02:49.058Z,6.18
2022-08-09T00:06:15.687Z,6.10
2022-08-09T00:08:11.352Z,5.25
2022-08-09T00:10:40.700Z,6.85
2022-08-09T00:13:16.982Z,6.22
2022-08-09T00:15:59.970Z,6.30
2022-08-09T00:18:31.394Z,5.97
2022-08-09T00:21:02.891Z,6.13
2022-08-09T00:23:57.564Z,7.00
2022-08-09T00:26:17.267Z,6.20
2022-08-09T00:28:52.652Z,6.45
2022-08-09T00:31:55.799Z,5.78
2022-08-09T00:34:10.891Z,6.10
2022-08-09T00:36:37.902Z,6.82
2022-08-09T00:39:06.744Z,6.10
2022-08-09T00:44:11.081Z,6.57
2022-08-09T00:44:31.179Z,5.47
2022-08-09T00:47:05.181Z,5.70
2022-08-09T00:49:36.579Z,5.97
2022-08-09T00:52:06.149Z,6.38
2022-08-09T00:54:45.494Z,5.85
2022-08-09T00:57:12.515Z,6.07
2022-08-09T00:59:46.532Z,5.30
2022-08-09T01:02:21.631Z,5.93
2022-08-09T01:05:02.630Z,5.75
2022-08-09T01:08:01.175Z,6.47
2022-08-09T01:10:40.821Z,4.93
2022-08-09T01:13:22.802Z,4.30
2022-08-09T01:15:52.931Z,5.50
2022-08-09T01:18:30.185Z,5.20
2022-08-09T01:21:17.706Z,5.00
2022-08-09T01:24:02.678Z,4.47
2022-08-09T01:26:55.893Z,6.18
2022-08-09T01:29:41.214Z,4.25
2022-08-09T01:32:31.153Z,3.58
2022-08-09T01:35:29.111Z,3.88
2022-08-09T01:38:09.235Z,3.90
2022-08-09T01:40:42.075Z,4.25
2022-08-09T01:43:10.363Z,3.20
2022-08-09T01:45:46.371Z,2.92
2022-08-09T01:48:19.267Z,3.03
2022-08-09T01:50:55.051Z,2.88
2022-08-09T01:53:29.242Z,3.10
2022-08-09T01:58:35.550Z,2.72
2022-08-09T02:01:03.074Z,2.58
2022-08-09T02:03:31.526Z,2.53
2022-08-09T02:06:04.006Z,2.90
2022-08-09T02:08:57.640Z,2.58
2022-08-09T02:11:25.751Z,2.95
2022-08-09T02:14:10.555Z,2.72
2022-08-09T02:16:59.389Z,2.40
2022-08-09T02:19:35.005Z,3.22
2022-08-09T02:22:27.503Z,2.97
2022-08-09T02:27:57.755Z,2.55
2022-08-09T02:30:17.882Z,3.45
2022-08-09T02:32:47.738Z,2.95
2022-08-09T02:35:23.104Z,3.58
2022-08-09T02:38:06.725Z,3.35
2022-08-09T02:40:35.891Z,3.63
2022-08-09T02:43:03.386Z,3.05
2022-08-09T02:45:39.912Z,4.10
2022-08-09T02:48:19.637Z,2.78
2022-08-09T02:50:59.922Z,3.30
2022-08-09T02:53:47.366Z,2.90
2022-08-09T02:56:27.924Z,3.20
2022-08-09T02:58:55.101Z,3.60
2022-08-09T03:01:29.065Z,3.05
2022-08-09T03:04:18.088Z,3.00
2022-08-09T03:06:45.450Z,3.33
2022-08-09T03:09:13.426Z,2.90
2022-08-09T03:12:10.535Z,2.88
2022-08-09T03:14:29.309Z,2.92
2022-08-09T03:16:58.443Z,2.90
2022-08-09T03:19:52.449Z,2.60
2022-08-09T03:22:24.941Z,2.70
2022-08-09T03:25:05.752Z,2.60
2022-08-09T03:27:45.275Z,2.65
2022-08-09T03:30:13.490Z,3.58
2022-08-09T03:32:41.130Z,2.55
2022-08-09T03:35:24.310Z,2.60
2022-08-09T03:37:54.530Z,2.70
2022-08-09T03:40:24.603Z,2.55
2022-08-09T03:42:51.614Z,2.30
2022-08-09T03:46:04.164Z,2.92
2022-08-09T03:48:05.436Z,2.60
2022-08-09T03:50:33.401Z,3.10
2022-08-09T03:53:03.165Z,3.63
2022-08-09T03:55:30.233Z,2.40
2022-08-09T03:58:09.756Z,2.33
2022-08-09T04:00:44.695Z,2.50
2022-08-09T04:03:24.535Z,2.13
2022-08-09T04:05:58.860Z,2.20
2022-08-09T04:08:28.795Z,2.40
2022-08-09T04:10:55.911Z,2.00
2022-08-09T04:14:37.742Z,2.72
2022-08-09T04:16:19.672Z,3.10
2022-08-09T04:18:47.840Z,2.40
2022-08-09T04:21:15.875Z,2.10
2022-08-09T04:23:53.598Z,2.40
2022-08-09T04:26:23.380Z,2.40
2022-08-09T04:28:50.217Z,2.17
2022-08-09T04:31:16.837Z,2.22
2022-08-09T04:33:52.381Z,2.15
2022-08-09T04:36:25.500Z,2.10
2022-08-09T04:38:56.925Z,1.98
2022-08-09T04:41:32.357Z,2.15
2022-08-09T04:44:06.683Z,2.05
2022-08-09T04:46:57.498Z,2.00
2022-08-09T04:49:40.862Z,1.85
2022-08-09T04:52:09.953Z,1.90
2022-08-09T04:54:36.820Z,2.03
2022-08-09T04:57:04.060Z,2.00
2022-08-09T04:59:31.162Z,1.90
2022-08-09T05:01:58.243Z,1.88
2022-08-09T05:04:30.647Z,2.35
2022-08-09T05:06:58.380Z,1.70
2022-08-09T05:09:24.993Z,2.00
2022-08-09T05:12:09.771Z,2.17
2022-08-09T05:14:41.270Z,2.28
2022-08-09T05:18:36.897Z,1.90
2022-08-09T05:19:56.733Z,2.10
2022-08-09T05:22:33.402Z,2.20
2022-08-09T05:25:04.415Z,1.40
2022-08-09T05:27:31.292Z,2.80
2022-08-09T05:29:57.938Z,1.85
2022-08-09T05:32:26.194Z,2.17
2022-08-09T05:34:56.826Z,1.50
2022-08-09T05:37:23.843Z,1.85
2022-08-09T05:39:51.783Z,2.05
2022-08-09T05:42:21.830Z,1.70
2022-08-09T05:44:53.491Z,2.47
2022-08-09T05:47:22.758Z,2.08
2022-08-09T05:50:30.922Z,2.00
2022-08-09T05:52:42.046Z,2.17
2022-08-09T05:55:18.058Z,2.13
2022-08-09T05:57:55.511Z,2.35
2022-08-09T06:00:28.871Z,2.20
2022-08-09T06:03:00.400Z,2.20
2022-08-09T06:05:31.095Z,1.70
2022-08-09T06:08:19.666Z,1.70
2022-08-09T06:10:53.464Z,1.75
2022-08-09T06:13:21.504Z,1.65
2022-08-09T06:15:52.326Z,1.92
2022-08-09T06:18:25.507Z,2.17
2022-08-09T06:20:56.936Z,2.08
2022-08-09T06:23:55.170Z,1.80
2022-08-09T06:26:13.663Z,1.70
2022-08-09T06:28:43.404Z,1.85
2022-08-09T06:31:10.504Z,2.40
2022-08-09T06:33:41.064Z,2.00
2022-08-09T06:36:09.371Z,1.58
2022-08-09T06:38:38.752Z,1.77
2022-08-09T06:41:18.871Z,1.45
2022-08-09T06:43:46.961Z,1.80
2022-08-09T06:46:39.756Z,1.73
2022-08-09T06:49:01.413Z,2.03
2022-08-09T06:51:28.346Z,1.67
2022-08-09T06:53:55.425Z,1.88
2022-08-09T06:56:30.893Z,1.45
2022-08-09T07:00:52.508Z,1.90
2022-08-09T07:01:58.132Z,1.92
2022-08-09T07:04:26.929Z,1.70
2022-08-09T07:07:00.722Z,1.70
2022-08-09T07:09:57.142Z,1.98
2022-08-09T07:12:18.023Z,2.00
2022-08-09T07:14:51.114Z,1.40
2022-08-09T07:17:19.818Z,1.88
2022-08-09T07:19:47.962Z,1.38
2022-08-09T07:22:18.090Z,1.40
2022-08-09T07:24:49.356Z,1.55
2022-08-09T07:27:33.366Z,1.67
2022-08-09T07:30:02.011Z,1.38
2022-08-09T07:32:33.637Z,2.45
2022-08-09T07:35:10.097Z,1.65
2022-08-09T07:37:42.895Z,1.40
2022-08-09T07:40:17.246Z,1.13
2022-08-09T07:42:54.476Z,1.52
2022-08-09T07:45:37.284Z,2.05
2022-08-09T07:48:06.999Z,1.85
2022-08-09T07:50:36.840Z,1.52
2022-08-09T07:53:05.135Z,1.42
2022-08-09T07:55:41.697Z,1.10
2022-08-09T07:58:21.611Z,1.23
2022-08-09T08:00:59.072Z,1.50
2022-08-09T08:03:33.579Z,1.48
2022-08-09T08:06:04.395Z,1.60
2022-08-09T08:09:00.418Z,4.63
2022-08-09T08:12:11.583Z,1.10
2022-08-09T08:14:06.494Z,1.30
2022-08-09T08:16:33.424Z,1.42
2022-08-09T08:19:02.793Z,1.33
2022-08-09T08:21:31.211Z,1.30
2022-08-09T08:24:01.237Z,1.60
2022-08-09T08:26:41.822Z,1.35
2022-08-09T08:29:27.732Z,1.73
2022-08-09T08:32:04.498Z,1.30
2022-08-09T08:34:34.364Z,1.25
2022-08-09T08:37:02.102Z,1.15
2022-08-09T08:39:28.845Z,1.25
2022-08-09T08:41:58.702Z,1.10
2022-08-09T08:44:29.554Z,1.10
2022-08-09T08:47:03.378Z,1.20
2022-08-09T08:49:48.686Z,1.23
2022-08-09T08:55:15.283Z,1.33
2022-08-09T08:57:57.290Z,1.20
2022-08-09T09:00:30.026Z,1.08
2022-08-09T09:03:08.567Z,1.42
2022-08-09T09:06:00.875Z,1.55
2022-08-09T09:08:30.537Z,1.42
2022-08-09T09:11:02.617Z,1.55
2022-08-09T09:13:34.751Z,1.40
2022-08-09T09:16:13.857Z,1.20
2022-08-09T09:18:45.863Z,1.70
2022-08-09T09:21:14.884Z,1.38
2022-08-09T09:23:57.349Z,1.30
2022-08-09T09:26:25.990Z,1.60
2022-08-09T09:29:03.992Z,1.38
2022-08-09T09:34:24.835Z,1.70
2022-08-09T09:36:57.425Z,1.38
2022-08-09T09:39:54.757Z,1.80
2022-08-09T09:42:29.577Z,1.48
2022-08-09T09:45:08.110Z,1.65
2022-08-09T09:47:47.796Z,1.13
2022-08-09T09:50:17.517Z,1.63
2022-08-09T09:52:53.497Z,1.60
2022-08-09T09:55:28.709Z,1.27
2022-08-09T09:58:19.238Z,1.50
2022-08-09T10:00:52.770Z,1.35
2022-08-09T10:03:42.740Z,1.15
2022-08-09T10:06:11.681Z,1.20
2022-08-09T10:08:44.247Z,1.20
2022-08-09T10:11:59.774Z,1.20
2022-08-09T10:14:31.836Z,1.00
2022-08-09T10:17:40.071Z,1.33
2022-08-09T10:19:58.818Z,1.35
2022-08-09T10:22:34.139Z,1.20
2022-08-09T10:25:11.880Z,1.20
2022-08-09T10:27:56.041Z,1.48
2022-08-09T10:34:04.519Z,1.38
2022-08-09T10:36:00.911Z,9.77
2022-08-09T10:38:43.225Z,1.75
2022-08-09T10:41:17.832Z,1.70
2022-08-09T10:43:52.602Z,1.38
2022-08-09T10:46:54.557Z,1.50
2022-08-09T10:49:51.817Z,1.30
2022-08-09T10:53:00.019Z,1.75
2022-08-09T10:58:34.618Z,1.20
2022-08-09T11:03:02.734Z,1.25
2022-08-09T11:04:27.983Z,1.10
2022-08-09T11:06:59.596Z,1.33
2022-08-09T11:09:41.209Z,2.10
2022-08-09T11:12:18.490Z,1.30
2022-08-09T11:15:05.753Z,1.50
2022-08-09T11:17:32.700Z,0.80
2022-08-09T11:20:22.658Z,1.33
2022-08-09T11:22:55.379Z,1.30
2022-08-09T11:25:45.111Z,1.10
2022-08-09T11:28:34.574Z,1.40
2022-08-09T11:31:04.191Z,1.17
2022-08-09T11:33:46.211Z,1.13
2022-08-09T11:36:30.430Z,1.20
2022-08-09T11:39:02.287Z,0.90
2022-08-09T11:41:38.536Z,1.45
2022-08-09T11:44:08.118Z,0.95
2022-08-09T11:46:57.217Z,1.17
2022-08-09T11:50:54.037Z,1.15
2022-08-09T11:53:21.256Z,1.13
2022-08-09T11:55:52.068Z,1.20
2022-08-09T11:58:32.556Z,1.30
2022-08-09T12:01:08.588Z,1.40
2022-08-09T12:03:57.201Z,1.27
2022-08-09T12:06:32.669Z,1.48
2022-08-09T12:09:19.535Z,0.93
2022-08-09T12:12:03.239Z,1.20
2022-08-09T12:14:48.830Z,1.13
2022-08-09T12:17:34.417Z,1.05
2022-08-09T12:20:34.585Z,1.35
2022-08-09T12:23:02.886Z,1.20
2022-08-09T12:25:37.402Z,1.00
2022-08-09T12:29:14.482Z,1.10
2022-08-09T12:31:31.259Z,0.65
2022-08-09T12:34:06.185Z,1.23
2022-08-09T12:36:33.621Z,1.02
2022-08-09T12:39:01.517Z,1.30
2022-08-09T12:41:36.364Z,1.00
2022-08-09T12:44:10.306Z,1.17
2022-08-09T12:46:41.806Z,1.13
2022-08-09T12:49:10.035Z,1.30
2022-08-09T12:52:01.204Z,1.10
2022-08-09T12:54:24.464Z,1.25
2022-08-09T12:56:54.093Z,1.30
2022-08-09T12:59:23.462Z,1.17
2022-08-09T13:01:59.221Z,1.40
2022-08-09T13:04:36.497Z,1.48
2022-08-09T13:07:19.961Z,1.20
2022-08-09T13:10:02.561Z,1.17
2022-08-09T13:12:29.385Z,1.52
2022-08-09T13:15:09.774Z,1.40
2022-08-09T13:18:03.479Z,1.30
2022-08-09T13:20:37.769Z,1.70
2022-08-09T13:24:16.560Z,1.55
2022-08-09T13:26:41.799Z,2.03
2022-08-09T13:29:12.981Z,1.95
2022-08-09T13:32:15.154Z,1.60
2022-08-09T13:34:41.687Z,1.30
2022-08-09T13:37:08.966Z,1.42
2022-08-09T13:41:46.924Z,2.25
2022-08-09T13:42:26.387Z,1.80
2022-08-09T13:44:53.454Z,1.10
2022-08-09T13:47:44.217Z,1.02
2022-08-09T13:50:18.244Z,1.27
2022-08-09T13:52:56.202Z,1.55
2022-08-09T13:55:23.050Z,1.10
2022-08-09T13:57:56.018Z,1.10
2022-08-09T14:00:28.537Z,1.05
2022-08-09T14:03:03.335Z,1.27
2022-08-09T14:05:59.171Z,0.93
2022-08-09T14:08:29.248Z,1.10
2022-08-09T14:10:57.063Z,1.70
2022-08-09T14:14:15.918Z,1.00
2022-08-09T14:16:18.370Z,1.30
2022-08-09T14:18:49.589Z,1.60
2022-08-09T14:21:22.498Z,2.05
2022-08-09T14:23:55.546Z,1.17
2022-08-09T14:26:30.528Z,1.52
2022-08-09T14:29:08.103Z,1.52
2022-08-09T14:31:54.054Z,1.33
2022-08-09T14:34:32.261Z,3.38
2022-08-09T14:37:01.851Z,1.40
2022-08-09T14:39:46.575Z,0.95
2022-08-09T14:42:40.362Z,1.30
2022-08-09T14:46:39.965Z,2.08
2022-08-09T14:47:58.495Z,1.27
2022-08-09T14:50:30.981Z,1.15
2022-08-09T14:52:58.694Z,1.23
2022-08-09T14:55:25.359Z,1.38
2022-08-09T14:57:56.005Z,1.48
2022-08-09T15:00:23.020Z,1.30
2022-08-09T15:02:51.825Z,1.15
2022-08-09T15:05:19.139Z,1.35
2022-08-09T15:07:56.222Z,1.58
2022-08-09T15:10:24.759Z,1.85
2022-08-09T15:12:52.530Z,1.33
2022-08-09T15:15:20.232Z,1.42
2022-08-09T15:17:52.355Z,1.23
2022-08-09T15:22:01.085Z,0.93
2022-08-09T15:24:02.198Z,1.58
2022-08-09T15:25:55.603Z,1.42
2022-08-09T15:28:27.235Z,2.00
2022-08-09T15:31:08.713Z,1.17
2022-08-09T15:34:19.607Z,1.42
2022-08-09T15:36:28.723Z,1.50
2022-08-09T15:38:57.071Z,1.42
2022-08-09T15:41:32.158Z,1.70
2022-08-09T15:44:02.546Z,1.50
2022-08-09T15:46:32.784Z,1.42
2022-08-09T15:49:22.352Z,1.67
2022-08-09T15:52:02.728Z,1.60
2022-08-09T15:54:49.468Z,1.63
2022-08-09T15:57:34.111Z,2.10
2022-08-09T16:00:14.126Z,1.50
2022-08-09T16:02:48.139Z,1.95
2022-08-09T16:05:22.443Z,1.60
2022-08-09T16:07:50.871Z,1.70
2022-08-09T16:10:54.912Z,1.75
2022-08-09T16:13:05.241Z,1.48
2022-08-09T16:16:10.835Z,1.40
2022-08-09T16:18:32.657Z,1.92
2022-08-09T16:20:59.339Z,1.63
2022-08-09T16:23:27.019Z,2.13
2022-08-09T16:26:00.964Z,1.60
2022-08-09T16:28:29.629Z,1.30
2022-08-09T16:30:58.877Z,1.30
2022-08-09T16:33:26.544Z,1.83
2022-08-09T16:35:59.072Z,1.40
2022-08-09T16:38:27.594Z,1.55
2022-08-09T16:40:56.451Z,1.65
2022-08-09T16:43:23.142Z,1.65
2022-08-09T16:45:53.809Z,1.67
2022-08-09T16:48:42.730Z,1.77
2022-08-09T16:51:14.048Z,1.30
2022-08-09T16:54:08.982Z,1.55
2022-08-09T16:56:30.670Z,1.92
2022-08-09T16:58:57.848Z,1.95
2022-08-09T17:01:25.120Z,1.80
2022-08-09T17:03:52.075Z,2.33
2022-08-09T17:06:31.280Z,1.98
2022-08-09T17:09:11.723Z,2.30
2022-08-09T17:11:48.000Z,1.83
2022-08-09T17:14:27.611Z,1.77
2022-08-09T17:17:01.652Z,2.00
2022-08-09T17:20:05.074Z,2.13
2022-08-09T17:22:23.956Z,1.90
2022-08-09T17:25:10.282Z,1.90
2022-08-09T17:27:48.751Z,1.98
2022-08-09T17:30:15.618Z,1.85
2022-08-09T17:32:45.470Z,2.05
2022-08-09T17:35:14.108Z,1.90
2022-08-09T17:38:12.745Z,1.63
2022-08-09T17:40:29.660Z,2.10
2022-08-09T17:42:59.820Z,1.90
2022-08-09T17:46:03.356Z,4.00
2022-08-09T17:48:29.280Z,1.85
2022-08-09T17:50:59.353Z,2.17
2022-08-09T17:53:43.024Z,2.10
2022-08-09T17:56:14.633Z,1.63
2022-08-09T17:58:44.882Z,2.58
2022-08-09T18:01:15.382Z,2.45
2022-08-09T18:03:49.240Z,1.83
2022-08-09T18:06:28.782Z,2.22
2022-08-09T18:09:03.424Z,2.30
2022-08-09T18:11:46.846Z,1.92
2022-08-09T18:14:23.265Z,2.33
2022-08-09T18:16:53.146Z,2.78
2022-08-09T18:20:56.208Z,2.30
2022-08-09T18:22:16.617Z,1.90
2022-08-09T18:24:45.539Z,2.10
2022-08-09T18:27:49.239Z,2.42
2022-08-09T18:30:40.979Z,2.35
2022-08-09T18:32:47.710Z,3.03
2022-08-09T18:35:22.369Z,2.72
2022-08-09T18:38:08.206Z,2.85
2022-08-09T18:40:35.576Z,2.58
2022-08-09T18:43:03.778Z,2.70
2022-08-09T18:46:45.945Z,1.95
2022-08-09T18:48:17.893Z,3.38
2022-08-09T18:50:44.830Z,2.83
2022-08-09T18:53:16.634Z,2.50
2022-08-09T18:55:56.063Z,4.65
2022-08-09T18:58:32.069Z,2.17
2022-08-09T19:01:00.404Z,2.80
2022-08-09T19:03:28.602Z,2.63
2022-08-09T19:06:03.426Z,2.10
2022-08-09T19:08:30.947Z,2.53
2022-08-09T19:10:57.601Z,2.53
2022-08-09T19:13:49.801Z,2.53
2022-08-09T19:16:11.411Z,3.05
2022-08-09T19:18:45.308Z,2.33
2022-08-09T19:21:12.214Z,3.35
2022-08-09T19:24:32.796Z,2.38
2022-08-09T19:26:29.547Z,1.70
2022-08-09T19:29:15.309Z,2.05
2022-08-09T19:31:49.370Z,2.50
2022-08-09T19:34:23.138Z,1.90
2022-08-09T19:36:52.626Z,2.40
2022-08-09T19:39:20.662Z,1.90
2022-08-09T19:41:56.277Z,2.10
2022-08-09T19:44:23.855Z,2.58
2022-08-09T19:46:53.534Z,2.10
2022-08-09T19:50:09.025Z,2.17
2022-08-09T19:52:08.446Z,6.50
2022-08-09T19:54:35.070Z,1.85
2022-08-09T19:57:02.366Z,3.78
2022-08-09T19:59:57.602Z,1.88
2022-08-09T20:04:17.882Z,1.70
2022-08-09T20:05:11.552Z,1.75
2022-08-09T20:08:00.255Z,2.33
2022-08-09T20:10:36.368Z,1.95
2022-08-09T20:13:05.611Z,1.70
2022-08-09T20:16:38.491Z,1.65
2022-08-09T20:18:20.266Z,2.47
2022-08-09T20:20:51.052Z,1.58
2022-08-09T20:23:21.109Z,1.95
2022-08-09T20:25:52.324Z,1.73
2022-08-09T20:28:28.176Z,1.60
2022-08-09T20:31:04.938Z,1.67
2022-08-09T20:33:39.019Z,2.00
2022-08-09T20:36:08.839Z,1.70
2022-08-09T20:39:02.657Z,1.60
2022-08-09T20:41:32.170Z,1.95
2022-08-09T20:44:02.346Z,1.88
2022-08-09T20:46:41.808Z,2.42
2022-08-09T20:49:11.405Z,1.67
2022-08-09T20:51:41.535Z,2.20
2022-08-09T20:54:12.540Z,2.00
2022-08-09T20:56:46.794Z,2.25
2022-08-09T20:59:17.234Z,2.42
2022-08-09T21:01:51.599Z,2.10
2022-08-09T21:05:51.579Z,1.90
2022-08-09T21:07:11.634Z,1.90
2022-08-09T21:09:56.797Z,2.28
2022-08-09T21:15:16.465Z,1.80
2022-08-09T21:18:23.758Z,2.15
2022-08-09T21:20:31.035Z,2.20
2022-08-09T21:22:59.584Z,2.17
2022-08-09T21:25:56.432Z,2.58
2022-08-09T21:28:34.158Z,1.85
2022-08-09T21:31:17.025Z,2.05
2022-08-09T21:33:50.906Z,1.90
2022-08-09T21:36:25.854Z,1.95
2022-08-09T21:38:56.994Z,2.15
2022-08-09T21:42:04.514Z,1.88
2022-08-09T21:44:34.385Z,2.00
2022-08-09T21:47:05.927Z,2.15
2022-08-09T21:49:40.523Z,1.90
2022-08-09T21:52:17.884Z,2.08
2022-08-09T21:55:03.409Z,2.65
2022-08-09T21:57:38.664Z,2.38
2022-08-09T22:00:37.753Z,2.20
2022-08-09T22:03:07.254Z,2.17
2022-08-09T22:05:36.799Z,2.60
2022-08-09T22:08:13.903Z,2.75
2022-08-09T22:11:05.176Z,2.30
2022-08-09T22:13:34.268Z,2.28
2022-08-09T22:16:03.689Z,2.40
2022-08-09T22:18:32.664Z,2.33
2022-08-09T22:21:00.491Z,2.33
2022-08-09T22:23:35.714Z,2.22
2022-08-09T22:26:33.910Z,2.50
2022-08-09T22:29:05.391Z,2.20
2022-08-09T22:31:35.697Z,2.58
2022-08-09T22:34:02.358Z,2.20
2022-08-09T22:36:28.987Z,2.30
2022-08-09T22:39:04.490Z,2.40
2022-08-09T22:41:31.099Z,2.42
2022-08-09T22:44:01.666Z,2.53
2022-08-09T22:48:14.556Z,2.47
2022-08-09T22:49:16.098Z,2.22
2022-08-09T22:51:49.277Z,2.53
2022-08-09T22:54:21.376Z,2.65
2022-08-09T22:56:56.821Z,2.30
2022-08-09T22:59:56.182Z,2.00
2022-08-09T23:02:11.026Z,1.77
2022-08-09T23:04:53.724Z,2.35
2022-08-09T23:08:22.492Z,2.35
2022-08-09T23:10:28.015Z,2.25
2022-08-09T23:12:54.747Z,2.40
2022-08-09T23:15:21.342Z,2.10
2022-08-09T23:17:47.995Z,2.55
2022-08-09T23:20:14.660Z,2.20
2022-08-09T23:22:41.283Z,2.40
2022-08-09T23:25:08.279Z,2.45
2022-08-09T23:27:35.150Z,2.63
2022-08-09T23:30:02.106Z,2.78
2022-08-09T23:32:28.825Z,2.60
2022-08-09T23:34:55.533Z,3.50
2022-08-09T23:37:22.974Z,3.05
2022-08-09T23:39:52.391Z,2.53
2022-08-09T23:42:18.964Z,2.28
2022-08-09T23:44:45.575Z,2.85
2022-08-09T23:47:12.283Z,2.80
2022-08-09T23:49:38.901Z,2.42
2022-08-09T23:52:05.530Z,2.92
2022-08-09T23:54:32.100Z,2.78
2022-08-09T23:56:58.899Z,2.30
2022-08-09T23:59:25.982Z,2.45
